createdAt,value
2023-01-17T00:01:24.369Z,78.93
2023-01-17T00:04:15.874Z,78.57
2023-01-17T00:07:06.026Z,78.09
2023-01-17T00:09:57.962Z,77.71
2023-01-17T00:12:32.249Z,77.61
2023-01-17T00:15:06.431Z,77.31
2023-01-17T00:17:39.410Z,77.62
2023-01-17T00:20:45.234Z,77.69
2023-01-17T00:23:37.191Z,77.91
2023-01-17T00:26:13.984Z,78.62
2023-01-17T00:28:46.658Z,78.71
2023-01-17T00:31:18.714Z,78.72
2023-01-17T00:33:50.490Z,78.79
2023-01-17T00:36:23.423Z,78.68
2023-01-17T00:38:55.105Z,78.23
2023-01-17T00:41:28.681Z,78.56
2023-01-17T00:44:18.988Z,78.05
2023-01-17T00:47:09.400Z,77.55
2023-01-17T00:49:59.524Z,77.36
2023-01-17T00:52:51.351Z,76.66
2023-01-17T00:55:41.851Z,76.18
2023-01-17T00:58:32.273Z,75.87
2023-01-17T01:01:24.694Z,75.63
2023-01-17T01:04:14.811Z,75.89
2023-01-17T01:07:04.960Z,76.55
2023-01-17T01:09:56.410Z,76.98
2023-01-17T01:12:46.710Z,77.45
2023-01-17T01:15:36.812Z,77.93
2023-01-17T01:18:29.786Z,78.19
2023-01-17T01:21:23.208Z,78.09
2023-01-17T01:24:13.401Z,78.47
2023-01-17T01:27:05.376Z,78.43
2023-01-17T01:29:55.445Z,78.37
2023-01-17T01:32:45.574Z,78.23
2023-01-17T01:35:19.099Z,77.89
2023-01-17T01:37:52.051Z,77.54
2023-01-17T01:40:24.944Z,77.76
2023-01-17T01:43:06.069Z,77.34
2023-01-17T01:45:39.353Z,77.64
2023-01-17T01:48:29.943Z,77.54
2023-01-17T01:51:05.688Z,77.42
2023-01-17T01:53:41.907Z,77.32
2023-01-17T01:56:16.461Z,77.39
2023-01-17T01:58:52.516Z,77.40
2023-01-17T02:01:25.799Z,77.24
2023-01-17T02:03:58.818Z,76.93
2023-01-17T02:06:36.021Z,76.81
2023-01-17T02:09:11.612Z,76.49
2023-01-17T02:11:46.882Z,76.35
2023-01-17T02:14:22.873Z,75.97
2023-01-17T02:17:07.231Z,75.17
2023-01-17T02:20:16.960Z,75.14
2023-01-17T02:23:19.491Z,75.02
2023-01-17T02:26:15.580Z,74.86
2023-01-17T02:29:10.798Z,73.90
2023-01-17T02:31:49.613Z,73.31
2023-01-17T02:34:29.773Z,72.72
2023-01-17T02:37:08.780Z,73.11
2023-01-17T02:39:49.929Z,73.05
2023-01-17T02:42:27.834Z,73.47
2023-01-17T02:45:00.766Z,73.99
2023-01-17T02:47:35.468Z,74.26
2023-01-17T02:50:13.529Z,74.69
2023-01-17T02:53:06.248Z,74.60
2023-01-17T02:55:51.141Z,74.95
2023-01-17T02:58:42.897Z,75.34
2023-01-17T03:01:26.138Z,76.44
2023-01-17T03:04:04.855Z,76.40
2023-01-17T03:06:41.813Z,76.59
2023-01-17T03:09:16.851Z,76.12
2023-01-17T03:11:50.162Z,76.57
2023-01-17T03:14:23.001Z,76.29
2023-01-17T03:16:57.005Z,75.30
2023-01-17T03:19:31.428Z,74.60
2023-01-17T03:22:04.423Z,74.23
2023-01-17T03:24:37.289Z,73.45
2023-01-17T03:27:10.102Z,73.57
2023-01-17T03:29:43.050Z,73.36
2023-01-17T03:32:16.069Z,73.24
2023-01-17T03:34:50.348Z,73.31
2023-01-17T03:37:23.178Z,73.14
2023-01-17T03:39:56.155Z,73.29
2023-01-17T03:42:28.997Z,73.16
2023-01-17T03:45:01.872Z,73.17
2023-01-17T03:47:36.218Z,73.16
2023-01-17T03:50:13.096Z,72.97
2023-01-17T03:52:45.934Z,72.62
2023-01-17T03:55:19.158Z,72.57
2023-01-17T03:57:52.276Z,72.24
2023-01-17T04:00:25.489Z,72.32
2023-01-17T04:02:58.470Z,72.26
2023-01-17T04:05:32.911Z,72.40
2023-01-17T04:08:07.187Z,72.39
2023-01-17T04:10:40.075Z,72.60
2023-01-17T04:13:13.679Z,72.69
2023-01-17T04:15:48.503Z,72.86
2023-01-17T04:18:23.151Z,72.36
2023-01-17T04:20:57.472Z,72.60
2023-01-17T04:23:30.429Z,72.43
2023-01-17T04:26:03.677Z,72.58
2023-01-17T04:28:36.528Z,72.80
2023-01-17T04:31:14.285Z,73.12
2023-01-17T04:33:47.245Z,73.41
2023-01-17T04:36:21.523Z,73.40
2023-01-17T04:38:54.346Z,73.38
2023-01-17T04:41:27.425Z,73.17
2023-01-17T04:44:00.462Z,73.31
2023-01-17T04:46:33.683Z,73.20
2023-01-17T04:49:06.567Z,72.83
2023-01-17T04:51:40.902Z,72.77
2023-01-17T04:54:13.810Z,72.79
2023-01-17T04:56:46.719Z,73.15
2023-01-17T04:59:19.661Z,73.34
2023-01-17T05:01:52.593Z,73.20
2023-01-17T05:04:25.616Z,73.34
2023-01-17T05:07:00.754Z,73.27
2023-01-17T05:09:33.639Z,73.20
2023-01-17T05:12:06.972Z,73.11
2023-01-17T05:14:39.815Z,74.11
2023-01-17T05:17:12.805Z,74.81
2023-01-17T05:19:46.259Z,75.04
2023-01-17T05:22:20.629Z,75.40
2023-01-17T05:24:53.580Z,75.57
2023-01-17T05:27:27.058Z,75.30
2023-01-17T05:29:59.876Z,75.44
2023-01-17T05:32:33.248Z,75.44
2023-01-17T05:35:07.047Z,75.04
2023-01-17T05:37:41.342Z,74.78
2023-01-17T05:40:14.716Z,74.88
2023-01-17T05:42:48.061Z,74.33
2023-01-17T05:45:22.961Z,74.40
2023-01-17T05:47:57.997Z,74.08
2023-01-17T05:50:33.642Z,74.00
2023-01-17T05:53:10.398Z,73.79
2023-01-17T05:55:43.745Z,73.82
2023-01-17T05:58:19.456Z,73.17
2023-01-17T06:00:52.297Z,73.19
2023-01-17T06:03:25.229Z,73.18
2023-01-17T06:05:58.046Z,73.19
2023-01-17T06:08:32.412Z,73.26
2023-01-17T06:11:05.262Z,73.00
2023-01-17T06:13:38.296Z,72.99
2023-01-17T06:16:11.253Z,72.88
2023-01-17T06:18:44.247Z,73.26
2023-01-17T06:21:17.100Z,73.29
2023-01-17T06:23:51.756Z,73.18
2023-01-17T06:26:24.640Z,73.42
2023-01-17T06:28:57.586Z,73.68
2023-01-17T06:31:30.487Z,73.90
2023-01-17T06:34:04.216Z,74.02
2023-01-17T06:36:37.087Z,74.16
2023-01-17T06:39:14.969Z,74.25
2023-01-17T06:41:48.001Z,74.51
2023-01-17T06:44:20.930Z,74.51
2023-01-17T06:46:54.055Z,74.70
2023-01-17T06:49:27.195Z,74.97
2023-01-17T06:52:00.162Z,75.31
2023-01-17T06:54:34.690Z,75.67
2023-01-17T06:57:07.508Z,75.48
2023-01-17T06:59:40.405Z,75.64
2023-01-17T07:02:13.376Z,75.20
2023-01-17T07:04:46.336Z,75.34
2023-01-17T07:07:19.261Z,75.23
2023-01-17T07:09:53.539Z,75.20
2023-01-17T07:12:26.361Z,75.08
2023-01-17T07:14:59.250Z,75.25
2023-01-17T07:17:32.097Z,75.26
2023-01-17T07:20:05.767Z,75.44
2023-01-17T07:22:38.644Z,75.44
2023-01-17T07:25:13.044Z,75.50
2023-01-17T07:27:46.232Z,75.65
2023-01-17T07:30:19.601Z,75.47
2023-01-17T07:32:54.067Z,75.54
2023-01-17T07:35:27.289Z,75.86
2023-01-17T07:38:00.489Z,75.94
2023-01-17T07:40:41.720Z,75.86
2023-01-17T07:43:15.037Z,75.85
2023-01-17T07:45:50.818Z,76.23
2023-01-17T07:48:25.495Z,76.50
2023-01-17T07:50:59.679Z,76.53
2023-01-17T07:53:33.666Z,76.49
2023-01-17T07:56:09.393Z,76.87
2023-01-17T07:58:42.947Z,76.64
2023-01-17T08:01:16.739Z,76.74
2023-01-17T08:03:54.798Z,76.83
2023-01-17T08:06:29.310Z,77.00
2023-01-17T08:09:02.266Z,76.86
2023-01-17T08:11:36.507Z,76.63
2023-01-17T08:14:09.345Z,76.58
2023-01-17T08:16:42.266Z,76.60
2023-01-17T08:19:16.787Z,76.88
2023-01-17T08:21:49.666Z,76.87
2023-01-17T08:24:22.544Z,76.92
2023-01-17T08:26:57.214Z,76.71
2023-01-17T08:29:30.434Z,76.68
2023-01-17T08:32:03.397Z,76.83
2023-01-17T08:34:36.253Z,76.51
2023-01-17T08:37:09.687Z,76.34
2023-01-17T08:39:42.505Z,76.39
2023-01-17T08:42:17.280Z,76.12
2023-01-17T08:44:50.480Z,76.23
2023-01-17T08:47:23.415Z,76.14
2023-01-17T08:49:56.325Z,76.23
2023-01-17T08:52:29.693Z,76.33
2023-01-17T08:55:02.576Z,76.22
2023-01-17T08:57:37.118Z,76.08
2023-01-17T09:00:13.606Z,76.09
2023-01-17T09:02:46.488Z,75.34
2023-01-17T09:05:19.363Z,75.51
2023-01-17T09:07:52.304Z,75.49
2023-01-17T09:10:25.340Z,75.37
2023-01-17T09:12:59.602Z,75.53
2023-01-17T09:15:32.550Z,75.44
2023-01-17T09:18:05.477Z,75.61
2023-01-17T09:20:38.416Z,75.78
2023-01-17T09:23:11.434Z,75.79
2023-01-17T09:25:44.641Z,75.40
2023-01-17T09:28:20.218Z,76.01
2023-01-17T09:30:53.183Z,75.73
2023-01-17T09:33:26.147Z,75.71
2023-01-17T09:36:05.438Z,75.64
2023-01-17T09:38:39.008Z,75.19
2023-01-17T09:41:27.650Z,74.73
2023-01-17T09:44:13.788Z,75.28
2023-01-17T09:46:49.383Z,75.36
2023-01-17T09:49:34.070Z,75.17
2023-01-17T09:52:09.392Z,75.01
2023-01-17T09:54:44.130Z,75.13
2023-01-17T09:57:39.406Z,74.83
2023-01-17T10:00:28.726Z,74.81
2023-01-17T10:03:18.676Z,74.38
2023-01-17T10:06:12.814Z,74.17
2023-01-17T10:09:08.117Z,74.66
2023-01-17T10:12:05.709Z,73.91
2023-01-17T10:15:14.474Z,74.01
2023-01-17T10:17:58.548Z,73.92
2023-01-17T10:20:44.219Z,74.54
2023-01-17T10:23:36.616Z,73.86
2023-01-17T10:26:13.684Z,73.48
2023-01-17T10:28:51.195Z,73.23
2023-01-17T10:31:25.497Z,73.27
2023-01-17T10:34:08.177Z,71.80
2023-01-17T10:36:45.879Z,72.08
2023-01-17T10:39:22.293Z,71.92
2023-01-17T10:41:58.044Z,72.25
2023-01-17T10:44:40.079Z,72.26
2023-01-17T10:47:15.922Z,72.15
2023-01-17T10:49:53.740Z,72.24
2023-01-17T10:52:40.477Z,70.55
2023-01-17T10:55:28.350Z,71.58
2023-01-17T10:58:01.432Z,72.30
2023-01-17T11:00:45.178Z,70.96
2023-01-17T11:03:20.806Z,72.66
2023-01-17T11:06:19.998Z,71.17
2023-01-17T11:08:55.237Z,72.78
2023-01-17T11:11:32.078Z,71.71
2023-01-17T11:14:07.444Z,72.47
2023-01-17T11:16:42.264Z,71.60
2023-01-17T11:19:22.541Z,71.46
2023-01-17T11:22:02.768Z,71.95
2023-01-17T11:24:39.990Z,72.02
2023-01-17T11:27:26.374Z,71.66
2023-01-17T11:30:16.852Z,72.89
2023-01-17T11:32:53.809Z,71.97
2023-01-17T11:35:29.057Z,71.14
2023-01-17T11:38:11.589Z,70.80
2023-01-17T11:40:46.019Z,71.99
2023-01-17T11:43:23.174Z,71.81
2023-01-17T11:46:04.873Z,71.29
2023-01-17T11:48:39.800Z,71.44
2023-01-17T11:51:24.033Z,71.43
2023-01-17T11:54:09.605Z,71.41
2023-01-17T11:56:46.069Z,72.00
2023-01-17T11:59:30.009Z,71.49
2023-01-17T12:02:35.753Z,71.71
2023-01-17T12:05:29.062Z,71.35
2023-01-17T12:08:11.429Z,71.24
2023-01-17T12:10:55.276Z,71.88
2023-01-17T12:13:58.691Z,71.69
2023-01-17T12:16:50.354Z,70.94
2023-01-17T12:19:36.644Z,71.74
2023-01-17T12:22:27.788Z,71.77
2023-01-17T12:25:30.178Z,72.25
2023-01-17T12:28:25.779Z,71.98
2023-01-17T12:31:13.316Z,72.50
2023-01-17T12:33:52.021Z,71.92
2023-01-17T12:36:43.486Z,71.02
2023-01-17T12:39:20.260Z,71.55
2023-01-17T12:42:02.483Z,71.39
2023-01-17T12:44:50.189Z,70.16
2023-01-17T12:47:23.295Z,69.81
2023-01-17T12:50:07.648Z,70.41
2023-01-17T12:52:52.424Z,69.49
2023-01-17T12:55:36.855Z,69.80
2023-01-17T12:58:17.579Z,69.86
2023-01-17T13:00:58.792Z,69.28
2023-01-17T13:03:41.596Z,69.45
2023-01-17T13:06:25.035Z,69.88
2023-01-17T13:09:02.015Z,69.57
2023-01-17T13:11:41.220Z,70.10
2023-01-17T13:14:14.098Z,70.54
2023-01-17T13:16:57.888Z,69.51
2023-01-17T13:19:41.222Z,70.18
2023-01-17T13:22:18.334Z,70.51
2023-01-17T13:25:00.371Z,70.39
2023-01-17T13:28:01.653Z,69.41
2023-01-17T13:31:02.871Z,70.34
2023-01-17T13:34:12.666Z,70.05
2023-01-17T13:36:57.864Z,70.79
2023-01-17T13:39:53.258Z,70.96
2023-01-17T13:42:36.199Z,71.48
2023-01-17T13:45:10.536Z,71.66
2023-01-17T13:47:43.761Z,70.93
2023-01-17T13:50:48.883Z,66.79
2023-01-17T13:53:58.346Z,69.99
2023-01-17T13:56:35.379Z,70.45
2023-01-17T13:59:30.306Z,70.20
2023-01-17T14:02:03.188Z,70.73
2023-01-17T14:05:08.433Z,68.40
2023-01-17T14:07:47.713Z,70.42
2023-01-17T14:10:40.144Z,70.76
2023-01-17T14:13:33.247Z,70.58
2023-01-17T14:16:28.683Z,70.64
2023-01-17T14:19:01.740Z,71.26
2023-01-17T14:21:35.780Z,71.28
2023-01-17T14:24:17.185Z,71.20
2023-01-17T14:26:56.456Z,70.17
2023-01-17T14:29:52.282Z,70.72
2023-01-17T14:32:29.245Z,71.57
2023-01-17T14:35:03.340Z,71.89
2023-01-17T14:37:45.884Z,71.76
2023-01-17T14:40:22.319Z,72.01
2023-01-17T14:43:01.956Z,71.82
2023-01-17T14:45:36.998Z,72.12
2023-01-17T14:48:17.288Z,71.98
2023-01-17T14:50:52.014Z,72.12
2023-01-17T14:53:28.006Z,72.07
2023-01-17T14:56:04.150Z,72.15
2023-01-17T14:58:37.588Z,72.50
2023-01-17T15:01:13.642Z,72.08
2023-01-17T15:03:48.853Z,72.65
2023-01-17T15:06:24.973Z,72.86
2023-01-17T15:09:00.983Z,72.84
2023-01-17T15:11:37.697Z,72.42
2023-01-17T15:14:19.976Z,72.35
2023-01-17T15:16:52.971Z,73.05
2023-01-17T15:19:25.825Z,73.96
2023-01-17T15:21:59.755Z,73.35
2023-01-17T15:24:39.878Z,73.54
2023-01-17T15:27:16.986Z,73.62
2023-01-17T15:29:50.376Z,74.36
2023-01-17T15:32:28.017Z,73.99
2023-01-17T15:35:03.026Z,73.56
2023-01-17T15:37:39.081Z,74.16
2023-01-17T15:40:19.114Z,73.92
2023-01-17T15:42:57.711Z,73.23
2023-01-17T15:45:32.340Z,73.69
2023-01-17T15:48:31.912Z,73.43
2023-01-17T15:51:05.683Z,73.28
2023-01-17T15:53:41.113Z,73.72
2023-01-17T15:56:22.866Z,72.70
2023-01-17T15:59:17.259Z,73.12
2023-01-17T16:01:57.088Z,72.75
2023-01-17T16:04:34.886Z,73.32
2023-01-17T16:07:19.664Z,73.48
2023-01-17T16:09:53.012Z,73.72
2023-01-17T16:12:25.908Z,73.86
2023-01-17T16:15:11.647Z,74.20
2023-01-17T16:17:47.895Z,74.58
2023-01-17T16:20:24.960Z,74.98
2023-01-17T16:23:00.237Z,75.12
2023-01-17T16:25:34.020Z,75.45
2023-01-17T16:28:07.545Z,75.16
2023-01-17T16:30:44.615Z,75.23
2023-01-17T16:33:17.527Z,75.27
2023-01-17T16:35:53.235Z,75.11
2023-01-17T16:38:26.124Z,75.22
2023-01-17T16:40:59.047Z,75.11
2023-01-17T16:43:31.960Z,74.60
2023-01-17T16:46:08.005Z,74.85
2023-01-17T16:48:40.912Z,75.06
2023-01-17T16:51:13.861Z,75.24
2023-01-17T16:53:46.836Z,75.08
2023-01-17T16:56:20.650Z,74.92
2023-01-17T16:58:54.237Z,74.39
2023-01-17T17:01:28.971Z,74.48
2023-01-17T17:04:01.920Z,74.80
2023-01-17T17:06:35.029Z,74.91
2023-01-17T17:09:07.947Z,75.47
2023-01-17T17:11:42.979Z,75.29
2023-01-17T17:14:15.799Z,75.64
2023-01-17T17:16:52.035Z,76.15
2023-01-17T17:19:25.176Z,75.89
2023-01-17T17:22:00.022Z,76.02
2023-01-17T17:24:33.310Z,75.78
2023-01-17T17:27:06.249Z,75.75
2023-01-17T17:29:39.357Z,76.09
2023-01-17T17:32:13.683Z,76.32
2023-01-17T17:34:46.696Z,76.01
2023-01-17T17:37:19.747Z,75.83
2023-01-17T17:39:52.757Z,76.34
2023-01-17T17:42:25.791Z,76.38
2023-01-17T17:44:58.699Z,76.68
2023-01-17T17:47:32.968Z,76.91
2023-01-17T17:50:06.458Z,76.22
2023-01-17T17:52:40.031Z,75.92
2023-01-17T17:55:13.195Z,76.14
2023-01-17T17:57:46.456Z,75.54
2023-01-17T18:00:20.825Z,75.76
2023-01-17T18:02:55.128Z,75.35
2023-01-17T18:05:28.254Z,75.34
2023-01-17T18:08:01.367Z,75.37
2023-01-17T18:10:34.251Z,74.84
2023-01-17T18:13:07.304Z,74.45
2023-01-17T18:15:40.117Z,74.29
2023-01-17T18:18:14.483Z,74.02
2023-01-17T18:20:47.433Z,73.94
2023-01-17T18:23:20.785Z,73.72
2023-01-17T18:25:53.681Z,73.63
2023-01-17T18:28:27.358Z,73.50
2023-01-17T18:31:06.493Z,73.41
2023-01-17T18:33:41.352Z,73.20
2023-01-17T18:36:14.908Z,73.01
2023-01-17T18:38:49.371Z,72.81
2023-01-17T18:41:24.449Z,72.90
2023-01-17T18:43:57.736Z,72.86
2023-01-17T18:46:31.799Z,72.62
2023-01-17T18:49:06.408Z,73.00
2023-01-17T18:51:39.437Z,73.06
2023-01-17T18:54:12.399Z,73.26
2023-01-17T18:56:45.409Z,73.28
2023-01-17T18:59:19.718Z,73.62
2023-01-17T19:01:53.187Z,72.96
2023-01-17T19:04:29.852Z,73.57
2023-01-17T19:07:02.777Z,73.67
2023-01-17T19:09:35.782Z,73.68
2023-01-17T19:12:09.152Z,73.94
2023-01-17T19:14:42.051Z,73.86
2023-01-17T19:17:14.902Z,74.27
2023-01-17T19:19:49.564Z,74.44
2023-01-17T19:22:22.771Z,74.37
2023-01-17T19:24:55.776Z,74.40
2023-01-17T19:27:28.662Z,74.61
2023-01-17T19:30:01.634Z,74.84
2023-01-17T19:32:34.589Z,74.45
2023-01-17T19:35:11.302Z,74.40
2023-01-17T19:37:46.376Z,74.31
2023-01-17T19:40:21.000Z,74.45
2023-01-17T19:42:54.265Z,74.37
2023-01-17T19:45:27.203Z,74.40
2023-01-17T19:48:00.145Z,74.15
2023-01-17T19:50:34.867Z,74.00
2023-01-17T19:53:08.001Z,74.43
2023-01-17T19:55:41.093Z,75.00
2023-01-17T19:58:14.262Z,75.28
2023-01-17T20:00:47.774Z,75.67
2023-01-17T20:03:20.745Z,75.97
2023-01-17T20:05:58.711Z,76.60
2023-01-17T20:08:31.733Z,77.18
2023-01-17T20:11:05.745Z,77.72
2023-01-17T20:13:38.621Z,77.74
2023-01-17T20:16:13.834Z,77.31
2023-01-17T20:18:46.810Z,76.64
2023-01-17T20:21:23.079Z,75.84
2023-01-17T20:23:58.129Z,75.58
2023-01-17T20:26:35.005Z,75.25
2023-01-17T20:29:11.764Z,75.22
2023-01-17T20:31:45.955Z,75.45
2023-01-17T20:34:19.696Z,76.00
2023-01-17T20:36:57.471Z,76.27
2023-01-17T20:39:30.591Z,76.27
2023-01-17T20:42:04.075Z,76.09
2023-01-17T20:44:37.864Z,75.79
2023-01-17T20:47:10.907Z,75.54
2023-01-17T20:49:43.836Z,74.94
2023-01-17T20:52:18.318Z,74.88
2023-01-17T20:54:51.836Z,74.19
2023-01-17T20:57:24.750Z,74.24
2023-01-17T20:59:57.919Z,73.82
2023-01-17T21:02:31.089Z,73.70
2023-01-17T21:05:04.219Z,73.37
2023-01-17T21:07:38.646Z,73.26
2023-01-17T21:10:12.868Z,73.33
2023-01-17T21:12:46.709Z,73.46
2023-01-17T21:15:20.023Z,73.51
2023-01-17T21:17:53.215Z,73.66
2023-01-17T21:20:27.486Z,73.72
2023-01-17T21:23:01.933Z,74.43
2023-01-17T21:25:34.791Z,74.78
2023-01-17T21:28:07.824Z,75.14
2023-01-17T21:30:40.852Z,75.84
2023-01-17T21:33:14.162Z,76.05
2023-01-17T21:35:47.861Z,76.67
2023-01-17T21:38:22.631Z,76.97
2023-01-17T21:40:58.049Z,77.20
2023-01-17T21:43:31.059Z,76.89
2023-01-17T21:46:05.368Z,76.52
2023-01-17T21:48:40.763Z,76.26
2023-01-17T21:51:13.723Z,75.83
2023-01-17T21:53:48.085Z,75.35
2023-01-17T21:56:38.194Z,75.10
2023-01-17T21:59:11.353Z,74.50
2023-01-17T22:01:44.467Z,74.54
2023-01-17T22:04:17.557Z,74.19
2023-01-17T22:06:50.754Z,74.15
2023-01-17T22:09:25.033Z,73.85
2023-01-17T22:11:57.869Z,73.86
2023-01-17T22:14:30.820Z,73.49
2023-01-17T22:17:03.772Z,73.27
2023-01-17T22:19:36.644Z,73.30
2023-01-17T22:22:09.572Z,73.20
2023-01-17T22:24:43.845Z,73.44
2023-01-17T22:27:16.712Z,74.17
2023-01-17T22:29:49.590Z,74.60
2023-01-17T22:32:22.559Z,74.88
2023-01-17T22:34:55.428Z,75.41
2023-01-17T22:37:28.243Z,75.53
2023-01-17T22:40:05.011Z,75.80
2023-01-17T22:42:37.857Z,75.81
2023-01-17T22:45:11.576Z,75.82
2023-01-17T22:47:44.723Z,75.87
2023-01-17T22:50:18.319Z,75.77
2023-01-17T22:52:51.353Z,75.78
2023-01-17T22:55:25.802Z,75.58
2023-01-17T22:57:58.687Z,75.37
2023-01-17T23:00:31.631Z,75.01
2023-01-17T23:03:06.264Z,74.89
2023-01-17T23:05:46.551Z,75.05
2023-01-17T23:08:20.118Z,75.36
2023-01-17T23:11:12.189Z,75.20
2023-01-17T23:13:45.116Z,75.07
2023-01-17T23:16:35.329Z,75.32
2023-01-17T23:19:24.055Z,75.33
2023-01-17T23:22:19.507Z,75.19
2023-01-17T23:24:54.169Z,74.92
2023-01-17T23:27:47.878Z,74.95
2023-01-17T23:30:23.546Z,74.56
2023-01-17T23:32:59.547Z,74.56
2023-01-17T23:35:34.979Z,74.24
2023-01-17T23:38:29.464Z,74.51
2023-01-17T23:41:21.599Z,74.30
2023-01-17T23:43:57.657Z,74.24
2023-01-17T23:46:30.911Z,74.12
2023-01-17T23:49:03.881Z,74.49
2023-01-17T23:51:36.729Z,74.50
2023-01-17T23:54:10.293Z,74.29
2023-01-17T23:56:43.541Z,74.63
2023-01-17T23:59:17.966Z,74.85
